createdAt,value
2019-03-17T00:01:25.097Z,93.50
2019-03-17T00:03:55.555Z,93.50
2019-03-17T00:06:26.035Z,93.50
2019-03-17T00:08:56.465Z,93.70
2019-03-17T00:11:26.984Z,93.70
2019-03-17T00:13:57.421Z,93.90
2019-03-17T00:16:27.852Z,94.00
2019-03-17T00:18:58.318Z,94.00
2019-03-17T00:21:28.827Z,94.00
2019-03-17T00:23:59.291Z,94.00
2019-03-17T00:26:30.735Z,94.10
2019-03-17T00:29:01.259Z,94.20
2019-03-17T00:31:31.786Z,94.20
2019-03-17T00:34:02.208Z,94.10
2019-03-17T00:36:32.663Z,94.20
2019-03-17T00:39:03.103Z,94.20
2019-03-17T00:41:33.601Z,94.10
2019-03-17T00:44:04.013Z,94.20
2019-03-17T00:46:34.443Z,94.00
2019-03-17T00:49:04.967Z,94.00
2019-03-17T00:51:35.381Z,94.00
2019-03-17T00:54:05.794Z,94.10
2019-03-17T00:56:37.214Z,94.00
2019-03-17T00:59:07.662Z,94.10
2019-03-17T01:01:38.068Z,94.10
2019-03-17T01:04:08.546Z,94.10
2019-03-17T01:06:39.124Z,93.90
2019-03-17T01:09:09.656Z,93.90
2019-03-17T01:11:40.103Z,93.90
2019-03-17T01:14:10.513Z,93.80
2019-03-17T01:16:40.969Z,93.80
2019-03-17T01:19:12.356Z,93.80
2019-03-17T01:21:42.771Z,93.80
2019-03-17T01:24:13.255Z,93.60
2019-03-17T01:26:43.780Z,93.60
2019-03-17T01:29:14.192Z,93.40
2019-03-17T01:31:44.655Z,93.20
2019-03-17T01:34:15.095Z,93.10
2019-03-17T01:36:46.749Z,92.90
2019-03-17T01:39:17.155Z,92.80
2019-03-17T01:41:47.559Z,92.60
2019-03-17T01:44:18.021Z,92.60
2019-03-17T01:46:48.421Z,92.50
2019-03-17T01:49:19.847Z,92.50
2019-03-17T01:51:50.280Z,92.10
2019-03-17T01:54:20.685Z,92.00
2019-03-17T01:56:51.085Z,91.90
2019-03-17T01:59:21.489Z,91.80
2019-03-17T02:01:51.927Z,91.70
2019-03-17T02:04:22.397Z,91.60
2019-03-17T02:06:52.849Z,91.50
2019-03-17T02:09:23.366Z,91.50
2019-03-17T02:11:53.793Z,91.40
2019-03-17T02:14:24.316Z,91.30
2019-03-17T02:16:54.705Z,91.40
2019-03-17T02:19:25.082Z,91.30
2019-03-17T02:21:55.557Z,91.30
2019-03-17T02:24:25.985Z,91.40
2019-03-17T02:26:56.511Z,91.30
2019-03-17T02:29:26.949Z,91.20
2019-03-17T02:31:57.419Z,91.20
2019-03-17T02:34:27.856Z,91.10
2019-03-17T02:36:58.404Z,91.00
2019-03-17T02:39:28.958Z,91.00
2019-03-17T02:41:59.411Z,91.00
2019-03-17T02:44:29.912Z,91.00
2019-03-17T02:47:00.389Z,91.00
2019-03-17T02:49:30.917Z,90.90
2019-03-17T02:52:01.480Z,90.80
2019-03-17T02:54:31.971Z,90.80
2019-03-17T02:57:02.432Z,90.80
2019-03-17T02:59:32.872Z,90.70
2019-03-17T03:02:06.078Z,90.70
2019-03-17T03:04:36.624Z,90.70
2019-03-17T03:07:07.129Z,90.60
2019-03-17T03:09:37.556Z,90.60
2019-03-17T03:12:08.210Z,90.60
2019-03-17T03:14:38.668Z,90.60
2019-03-17T03:17:09.128Z,90.60
2019-03-17T03:19:39.610Z,90.50
2019-03-17T03:22:10.057Z,90.50
2019-03-17T03:24:40.521Z,90.50
2019-03-17T03:27:10.968Z,90.50
2019-03-17T03:29:41.379Z,90.30
2019-03-17T03:32:11.785Z,90.20
2019-03-17T03:34:42.230Z,90.20
2019-03-17T03:37:12.863Z,90.10
2019-03-17T03:39:43.363Z,90.00
2019-03-17T03:42:13.780Z,89.90
2019-03-17T03:44:44.486Z,89.80
2019-03-17T03:47:14.912Z,89.80
2019-03-17T03:49:46.196Z,89.60
2019-03-17T03:52:16.766Z,89.50
2019-03-17T03:54:47.334Z,89.20
2019-03-17T03:57:17.837Z,89.00
2019-03-17T03:59:48.395Z,88.70
2019-03-17T04:02:18.837Z,88.70
2019-03-17T04:04:49.306Z,88.60
2019-03-17T04:07:19.778Z,88.50
2019-03-17T04:09:50.239Z,88.50
2019-03-17T04:12:20.730Z,88.20
2019-03-17T04:14:51.246Z,88.10
2019-03-17T04:17:21.685Z,88.00
2019-03-17T04:19:52.142Z,88.60
2019-03-17T04:22:22.574Z,87.90
2019-03-17T04:24:53.094Z,87.70
2019-03-17T04:27:23.490Z,87.60
2019-03-17T04:29:53.950Z,87.50
2019-03-17T04:32:24.425Z,87.50
2019-03-17T04:34:54.968Z,87.40
2019-03-17T04:37:25.506Z,87.30
2019-03-17T04:39:56.021Z,87.30
2019-03-17T04:42:26.553Z,87.20
2019-03-17T04:44:57.119Z,87.10
2019-03-17T04:47:27.679Z,87.10
2019-03-17T04:49:58.247Z,87.20
2019-03-17T04:52:28.767Z,88.00
2019-03-17T04:54:59.200Z,87.50
2019-03-17T04:57:29.633Z,87.50
2019-03-17T05:00:00.063Z,87.50
2019-03-17T05:02:30.502Z,87.40
2019-03-17T05:05:01.142Z,87.40
2019-03-17T05:07:31.643Z,87.50
2019-03-17T05:10:02.134Z,87.60
2019-03-17T05:12:32.532Z,87.80
2019-03-17T05:15:02.916Z,88.00
2019-03-17T05:17:33.418Z,88.10
2019-03-17T05:20:03.859Z,88.10
2019-03-17T05:22:34.315Z,90.10
2019-03-17T05:25:06.098Z,87.90
2019-03-17T05:27:36.554Z,86.00
2019-03-17T05:30:07.428Z,84.20
2019-03-17T05:32:37.934Z,81.90
2019-03-17T05:35:08.507Z,80.10
2019-03-17T05:37:39.880Z,79.60
2019-03-17T05:40:10.932Z,77.90
2019-03-17T05:42:42.342Z,76.50
2019-03-17T05:45:12.746Z,74.90
2019-03-17T05:47:43.234Z,73.70
2019-03-17T05:50:13.804Z,72.50
2019-03-17T05:52:44.162Z,70.90
2019-03-17T05:55:14.565Z,69.80
2019-03-17T05:57:44.996Z,68.10
2019-03-17T06:00:16.465Z,68.50
2019-03-17T06:02:47.015Z,66.60
2019-03-17T06:05:17.443Z,66.80
2019-03-17T06:07:47.954Z,66.00
2019-03-17T06:10:18.510Z,66.20
2019-03-17T06:12:48.947Z,65.40
2019-03-17T06:15:19.349Z,65.20
2019-03-17T06:17:49.861Z,65.00
2019-03-17T06:20:20.290Z,65.30
2019-03-17T06:22:50.695Z,65.60
2019-03-17T06:25:21.194Z,64.80
2019-03-17T06:27:51.723Z,64.20
2019-03-17T06:30:22.248Z,64.80
2019-03-17T06:32:52.638Z,64.80
2019-03-17T06:35:23.095Z,64.50
2019-03-17T06:37:53.499Z,63.30
2019-03-17T06:40:23.989Z,63.70
2019-03-17T06:42:54.421Z,63.40
2019-03-17T06:45:24.889Z,63.10
2019-03-17T06:47:55.496Z,61.60
2019-03-17T06:50:26.950Z,61.90
2019-03-17T06:52:57.501Z,60.70
2019-03-17T06:55:28.013Z,59.80
2019-03-17T06:57:58.482Z,60.50
2019-03-17T07:00:28.954Z,60.00
2019-03-17T07:02:59.366Z,59.10
2019-03-17T07:05:29.928Z,57.80
2019-03-17T07:08:00.428Z,55.90
2019-03-17T07:10:31.013Z,55.80
2019-03-17T07:13:01.578Z,55.40
2019-03-17T07:15:32.070Z,54.40
2019-03-17T07:18:02.753Z,55.30
2019-03-17T07:20:33.258Z,53.40
2019-03-17T07:23:03.804Z,52.20
2019-03-17T07:25:34.448Z,51.30
2019-03-17T07:28:05.160Z,52.30
2019-03-17T07:30:35.638Z,51.90
2019-03-17T07:33:06.334Z,52.70
2019-03-17T07:35:37.109Z,53.10
2019-03-17T07:38:07.559Z,51.60
2019-03-17T07:40:38.160Z,51.60
2019-03-17T07:43:09.823Z,51.60
2019-03-17T07:45:40.317Z,52.30
2019-03-17T07:48:10.933Z,51.60
2019-03-17T07:50:42.474Z,51.10
2019-03-17T07:53:12.938Z,52.30
2019-03-17T07:55:43.519Z,52.50
2019-03-17T07:58:14.130Z,49.60
2019-03-17T08:00:44.742Z,47.70
2019-03-17T08:03:16.937Z,47.80
2019-03-17T08:05:48.736Z,47.60
2019-03-17T08:08:19.286Z,47.60
2019-03-17T08:10:50.036Z,47.60
2019-03-17T08:13:20.761Z,46.80
2019-03-17T08:15:51.478Z,46.80
2019-03-17T08:18:22.142Z,46.20
2019-03-17T08:20:52.986Z,47.10
2019-03-17T08:23:23.680Z,47.30
2019-03-17T08:25:54.296Z,46.20
2019-03-17T08:28:24.762Z,46.80
2019-03-17T08:30:55.355Z,44.80
2019-03-17T08:33:26.227Z,43.80
2019-03-17T08:35:56.804Z,43.90
2019-03-17T08:38:27.490Z,42.20
2019-03-17T08:40:58.124Z,40.70
2019-03-17T08:43:28.985Z,41.90
2019-03-17T08:45:59.560Z,40.40
2019-03-17T08:48:30.197Z,38.90
2019-03-17T08:51:00.738Z,38.50
2019-03-17T08:53:31.439Z,37.90
2019-03-17T08:56:02.837Z,38.00
2019-03-17T08:58:33.293Z,38.30
2019-03-17T09:01:03.969Z,37.00
2019-03-17T09:03:34.548Z,37.20
2019-03-17T09:06:05.008Z,37.90
2019-03-17T09:08:35.671Z,38.70
2019-03-17T09:11:07.073Z,37.80
2019-03-17T09:13:37.597Z,37.70
2019-03-17T09:16:08.183Z,37.30
2019-03-17T09:18:38.675Z,36.20
2019-03-17T09:21:09.153Z,37.00
2019-03-17T09:23:42.543Z,36.90
2019-03-17T09:26:11.999Z,36.30
2019-03-17T09:28:42.534Z,37.10
2019-03-17T09:31:13.229Z,35.70
2019-03-17T09:33:43.780Z,34.60
2019-03-17T09:36:14.207Z,33.90
2019-03-17T09:38:47.502Z,33.80
2019-03-17T09:41:16.850Z,34.00
2019-03-17T09:43:47.334Z,35.00
2019-03-17T09:46:17.815Z,34.40
2019-03-17T09:48:48.637Z,35.20
2019-03-17T09:51:19.574Z,34.90
2019-03-17T09:53:50.174Z,34.30
2019-03-17T09:56:20.751Z,34.50
2019-03-17T09:58:52.569Z,33.90
2019-03-17T10:01:23.050Z,34.90
2019-03-17T10:03:53.839Z,33.70
2019-03-17T10:06:24.476Z,33.50
2019-03-17T10:08:59.998Z,32.40
2019-03-17T10:11:27.271Z,31.80
2019-03-17T10:13:57.798Z,32.10
2019-03-17T10:16:28.386Z,31.50
2019-03-17T10:18:58.904Z,31.60
2019-03-17T10:21:29.327Z,30.60
2019-03-17T10:23:59.859Z,30.40
2019-03-17T10:26:30.319Z,31.00
2019-03-17T10:29:00.881Z,30.60
2019-03-17T10:31:31.375Z,30.00
2019-03-17T10:34:02.672Z,31.50
2019-03-17T10:36:34.572Z,31.70
2019-03-17T10:39:12.310Z,32.30
2019-03-17T10:41:38.973Z,32.80
2019-03-17T10:44:09.595Z,31.40
2019-03-17T10:46:40.077Z,31.80
2019-03-17T10:49:10.736Z,31.70
2019-03-17T10:51:41.192Z,31.90
2019-03-17T10:54:14.769Z,31.80
2019-03-17T10:56:44.185Z,30.50
2019-03-17T10:59:14.711Z,30.00
2019-03-17T11:01:45.258Z,29.70
2019-03-17T11:04:15.723Z,29.60
2019-03-17T11:06:46.244Z,30.10
2019-03-17T11:09:25.133Z,30.60
2019-03-17T11:11:48.804Z,30.70
2019-03-17T11:14:20.295Z,30.70
2019-03-17T11:16:50.806Z,29.70
2019-03-17T11:19:21.310Z,29.30
2019-03-17T11:21:51.970Z,30.00
2019-03-17T11:24:22.498Z,29.10
2019-03-17T11:26:55.614Z,29.70
2019-03-17T11:29:25.140Z,29.90
2019-03-17T11:31:55.720Z,28.90
2019-03-17T11:34:26.309Z,28.90
2019-03-17T11:36:56.845Z,29.20
2019-03-17T11:39:37.283Z,29.50
2019-03-17T11:41:59.811Z,29.20
2019-03-17T11:44:30.398Z,30.30
2019-03-17T11:47:01.081Z,30.00
2019-03-17T11:49:31.604Z,30.00
2019-03-17T11:52:02.208Z,28.80
2019-03-17T11:54:32.677Z,28.00
2019-03-17T11:57:03.204Z,27.80
2019-03-17T11:59:33.636Z,27.70
2019-03-17T12:02:04.435Z,28.10
2019-03-17T12:04:35.052Z,27.90
2019-03-17T12:07:05.639Z,28.00
2019-03-17T12:09:36.141Z,28.20
2019-03-17T12:12:07.180Z,28.00
2019-03-17T12:14:37.754Z,27.10
2019-03-17T12:17:08.268Z,26.30
2019-03-17T12:19:38.966Z,25.90
2019-03-17T12:22:09.737Z,26.30
2019-03-17T12:24:40.308Z,26.40
2019-03-17T12:27:10.989Z,25.60
2019-03-17T12:29:41.449Z,25.70
2019-03-17T12:32:12.012Z,25.70
2019-03-17T12:34:42.988Z,24.80
2019-03-17T12:37:13.568Z,24.90
2019-03-17T12:39:44.080Z,24.80
2019-03-17T12:42:14.691Z,25.00
2019-03-17T12:44:45.548Z,24.40
2019-03-17T12:47:16.063Z,23.90
2019-03-17T12:49:46.789Z,24.30
2019-03-17T12:52:18.239Z,24.10
2019-03-17T12:54:48.810Z,23.60
2019-03-17T12:57:19.258Z,23.70
2019-03-17T12:59:49.713Z,24.30
2019-03-17T13:02:20.224Z,24.10
2019-03-17T13:04:50.734Z,24.50
2019-03-17T13:07:21.229Z,24.70
2019-03-17T13:09:51.663Z,23.80
2019-03-17T13:12:22.214Z,23.80
2019-03-17T13:14:52.657Z,24.20
2019-03-17T13:17:23.142Z,24.50
2019-03-17T13:19:53.583Z,24.70
2019-03-17T13:22:24.139Z,24.60
2019-03-17T13:24:54.633Z,24.90
2019-03-17T13:27:25.363Z,24.20
2019-03-17T13:29:55.827Z,22.90
2019-03-17T13:32:26.367Z,22.60
2019-03-17T13:34:56.890Z,22.90
2019-03-17T13:37:27.497Z,22.80
2019-03-17T13:39:58.158Z,22.60
2019-03-17T13:42:29.552Z,23.10
2019-03-17T13:45:00.383Z,21.80
2019-03-17T13:47:31.095Z,21.70
2019-03-17T13:50:01.641Z,21.60
2019-03-17T13:52:32.238Z,21.20
2019-03-17T13:55:02.732Z,21.30
2019-03-17T13:57:33.302Z,20.90
2019-03-17T14:00:05.462Z,21.00
2019-03-17T14:02:35.994Z,21.00
2019-03-17T14:05:07.059Z,20.80
2019-03-17T14:07:37.628Z,20.90
2019-03-17T14:10:14.139Z,20.90
2019-03-17T14:12:43.914Z,20.70
2019-03-17T14:15:14.854Z,20.90
2019-03-17T14:17:46.418Z,20.70
2019-03-17T14:20:20.361Z,20.40
2019-03-17T14:22:49.951Z,20.50
2019-03-17T14:25:23.110Z,20.70
2019-03-17T14:27:53.747Z,20.20
2019-03-17T14:30:24.253Z,20.30
2019-03-17T14:32:55.049Z,20.90
2019-03-17T14:35:25.531Z,20.20
2019-03-17T14:37:55.987Z,20.80
2019-03-17T14:40:26.567Z,20.90
2019-03-17T14:42:57.188Z,20.90
2019-03-17T14:45:27.615Z,20.40
2019-03-17T14:47:58.106Z,20.70
2019-03-17T14:50:28.563Z,20.90
2019-03-17T14:53:00.868Z,20.60
2019-03-17T14:55:31.191Z,21.20
2019-03-17T14:58:01.897Z,21.40
2019-03-17T15:00:32.391Z,21.40
2019-03-17T15:03:02.946Z,22.00
2019-03-17T15:05:33.405Z,22.60
2019-03-17T15:08:04.644Z,22.50
2019-03-17T15:10:35.125Z,22.80
2019-03-17T15:13:06.176Z,23.20
2019-03-17T15:15:36.924Z,23.80
2019-03-17T15:18:07.462Z,23.60
2019-03-17T15:20:38.137Z,23.60
2019-03-17T15:23:08.767Z,23.50
2019-03-17T15:25:39.274Z,23.80
2019-03-17T15:28:09.815Z,24.00
2019-03-17T15:30:40.328Z,24.20
2019-03-17T15:33:10.953Z,24.30
2019-03-17T15:35:41.678Z,24.60
2019-03-17T15:38:12.237Z,24.90
2019-03-17T15:40:42.677Z,24.60
2019-03-17T15:43:13.260Z,25.60
2019-03-17T15:45:43.723Z,25.10
2019-03-17T15:48:14.271Z,25.10
2019-03-17T15:50:44.885Z,25.10
2019-03-17T15:53:15.636Z,25.20
2019-03-17T15:55:46.212Z,25.70
2019-03-17T15:58:16.876Z,25.60
2019-03-17T16:00:47.467Z,25.80
2019-03-17T16:03:17.993Z,25.50
2019-03-17T16:05:48.652Z,25.40
2019-03-17T16:08:20.222Z,25.70
2019-03-17T16:10:50.949Z,25.90
2019-03-17T16:13:21.713Z,26.00
2019-03-17T16:15:52.269Z,26.50
2019-03-17T16:18:23.761Z,26.70
2019-03-17T16:20:54.250Z,26.80
2019-03-17T16:23:24.885Z,27.10
2019-03-17T16:25:55.377Z,27.20
2019-03-17T16:28:25.893Z,27.30
2019-03-17T16:30:56.357Z,27.50
2019-03-17T16:33:26.978Z,27.90
2019-03-17T16:35:57.538Z,28.20
2019-03-17T16:38:28.292Z,28.40
2019-03-17T16:40:58.717Z,28.20
2019-03-17T16:43:29.409Z,27.80
2019-03-17T16:45:59.903Z,27.80
2019-03-17T16:48:30.414Z,27.30
2019-03-17T16:51:00.848Z,27.00
2019-03-17T16:53:31.435Z,26.50
2019-03-17T16:56:01.913Z,26.30
2019-03-17T16:58:32.652Z,26.00
2019-03-17T17:01:03.136Z,26.00
2019-03-17T17:03:34.867Z,25.90
2019-03-17T17:06:05.360Z,25.90
2019-03-17T17:08:35.935Z,26.20
2019-03-17T17:11:06.550Z,26.10
2019-03-17T17:13:37.266Z,26.10
2019-03-17T17:16:07.711Z,26.10
2019-03-17T17:18:38.365Z,26.20
2019-03-17T17:21:08.878Z,26.40
2019-03-17T17:23:39.434Z,26.50
2019-03-17T17:26:09.889Z,26.60
2019-03-17T17:28:40.416Z,26.60
2019-03-17T17:31:10.988Z,26.60
2019-03-17T17:33:41.509Z,26.60
2019-03-17T17:36:12.103Z,26.60
2019-03-17T17:38:42.729Z,26.50
2019-03-17T17:41:13.329Z,27.20
2019-03-17T17:43:43.911Z,27.00
2019-03-17T17:46:14.493Z,27.20
2019-03-17T17:48:45.005Z,27.10
2019-03-17T17:51:15.547Z,27.20
2019-03-17T17:53:45.979Z,27.40
2019-03-17T17:56:16.596Z,27.20
2019-03-17T17:58:47.214Z,27.50
2019-03-17T18:01:17.731Z,27.60
2019-03-17T18:03:51.792Z,27.90
2019-03-17T18:06:20.636Z,28.20
2019-03-17T18:08:51.208Z,28.30
2019-03-17T18:11:21.692Z,28.50
2019-03-17T18:13:52.230Z,28.70
2019-03-17T18:16:22.688Z,28.80
2019-03-17T18:18:54.817Z,29.00
2019-03-17T18:21:25.357Z,29.10
2019-03-17T18:23:55.929Z,29.30
2019-03-17T18:26:26.415Z,29.50
2019-03-17T18:28:57.965Z,29.50
2019-03-17T18:31:28.757Z,29.40
2019-03-17T18:33:59.326Z,29.60
2019-03-17T18:36:30.880Z,29.60
2019-03-17T18:39:01.365Z,29.80
2019-03-17T18:41:33.625Z,29.90
2019-03-17T18:44:05.250Z,30.50
2019-03-17T18:46:35.733Z,31.20
2019-03-17T18:49:06.251Z,31.20
2019-03-17T18:51:36.873Z,31.50
2019-03-17T18:54:07.437Z,31.90
2019-03-17T18:56:38.008Z,32.50
2019-03-17T18:59:08.707Z,32.60
2019-03-17T19:01:39.493Z,32.50
2019-03-17T19:04:10.086Z,32.80
2019-03-17T19:06:40.737Z,32.90
2019-03-17T19:09:12.379Z,32.80
2019-03-17T19:11:43.067Z,33.20
2019-03-17T19:14:13.721Z,33.20
2019-03-17T19:16:44.234Z,33.20
2019-03-17T19:19:14.742Z,33.60
2019-03-17T19:21:45.373Z,33.90
2019-03-17T19:24:15.880Z,34.00
2019-03-17T19:26:46.451Z,34.00
2019-03-17T19:29:16.997Z,34.40
2019-03-17T19:31:47.601Z,34.30
2019-03-17T19:34:18.113Z,34.60
2019-03-17T19:36:48.635Z,34.50
2019-03-17T19:39:19.245Z,34.60
2019-03-17T19:41:49.828Z,35.00
2019-03-17T19:44:20.379Z,35.00
2019-03-17T19:46:50.960Z,35.40
2019-03-17T19:49:21.588Z,35.50
2019-03-17T19:51:52.228Z,35.80
2019-03-17T19:54:22.830Z,35.40
2019-03-17T19:56:53.441Z,35.40
2019-03-17T19:59:24.170Z,35.90
2019-03-17T20:01:54.945Z,35.90
2019-03-17T20:04:31.441Z,36.10
2019-03-17T20:06:59.138Z,36.40
2019-03-17T20:09:29.785Z,36.70
2019-03-17T20:12:00.529Z,36.60
2019-03-17T20:14:31.320Z,36.70
2019-03-17T20:17:01.992Z,36.30
2019-03-17T20:19:32.702Z,36.20
2019-03-17T20:22:03.423Z,36.30
2019-03-17T20:24:35.353Z,36.50
2019-03-17T20:27:06.057Z,36.90
2019-03-17T20:29:37.237Z,37.60
2019-03-17T20:32:08.107Z,38.40
2019-03-17T20:34:38.769Z,38.70
2019-03-17T20:37:09.561Z,38.80
2019-03-17T20:39:40.166Z,38.70
2019-03-17T20:42:10.970Z,39.60
2019-03-17T20:44:41.541Z,39.90
2019-03-17T20:47:13.152Z,39.80
2019-03-17T20:49:45.212Z,40.50
2019-03-17T20:52:15.901Z,40.60
2019-03-17T20:54:46.477Z,40.90
2019-03-17T20:57:17.170Z,42.10
2019-03-17T20:59:47.867Z,42.30
2019-03-17T21:02:20.003Z,42.90
2019-03-17T21:04:50.773Z,43.40
2019-03-17T21:07:21.413Z,43.40
2019-03-17T21:09:52.082Z,43.30
2019-03-17T21:12:22.708Z,43.40
2019-03-17T21:14:53.323Z,43.30
2019-03-17T21:17:24.214Z,43.00
2019-03-17T21:19:54.837Z,43.00
2019-03-17T21:22:26.018Z,43.30
2019-03-17T21:24:56.842Z,42.50
2019-03-17T21:27:27.517Z,42.30
2019-03-17T21:29:58.052Z,42.20
2019-03-17T21:32:28.715Z,42.10
2019-03-17T21:34:59.298Z,42.40
2019-03-17T21:37:30.102Z,42.20
2019-03-17T21:40:00.931Z,42.10
2019-03-17T21:42:31.459Z,41.80
2019-03-17T21:45:02.070Z,41.10
2019-03-17T21:47:32.861Z,40.40
2019-03-17T21:50:03.836Z,40.40
2019-03-17T21:52:34.415Z,41.30
2019-03-17T21:55:05.305Z,41.10
2019-03-17T21:57:35.886Z,41.90
2019-03-17T22:00:08.737Z,41.30
2019-03-17T22:02:39.516Z,41.50
2019-03-17T22:05:11.443Z,41.60
2019-03-17T22:07:49.626Z,41.60
2019-03-17T22:10:14.489Z,42.40
2019-03-17T22:12:45.042Z,43.50
2019-03-17T22:15:15.672Z,44.50
2019-03-17T22:17:46.302Z,45.10
2019-03-17T22:20:17.331Z,45.30
2019-03-17T22:22:47.890Z,45.20
2019-03-17T22:25:18.462Z,45.40
2019-03-17T22:27:49.029Z,45.00
2019-03-17T22:30:19.752Z,45.50
2019-03-17T22:32:50.316Z,45.80
2019-03-17T22:35:20.905Z,45.90
2019-03-17T22:37:51.484Z,46.10
2019-03-17T22:40:22.289Z,46.40
2019-03-17T22:42:52.950Z,46.00
2019-03-17T22:45:23.506Z,46.90
2019-03-17T22:47:55.161Z,47.60
2019-03-17T22:50:25.881Z,48.30
2019-03-17T22:52:56.519Z,48.60
2019-03-17T22:55:27.041Z,49.20
2019-03-17T22:57:59.224Z,49.60
2019-03-17T23:00:39.028Z,49.90
2019-03-17T23:03:10.423Z,50.00
2019-03-17T23:05:41.180Z,50.10
2019-03-17T23:08:11.882Z,50.20
2019-03-17T23:10:42.687Z,50.60
2019-03-17T23:13:13.394Z,51.40
2019-03-17T23:15:44.133Z,51.40
2019-03-17T23:18:16.020Z,52.50
2019-03-17T23:20:46.956Z,53.50
2019-03-17T23:23:17.820Z,53.80
2019-03-17T23:25:48.667Z,53.40
2019-03-17T23:28:19.452Z,53.80
2019-03-17T23:30:50.218Z,54.10
2019-03-17T23:33:21.132Z,54.30
2019-03-17T23:35:51.948Z,55.10
2019-03-17T23:38:22.743Z,55.70
2019-03-17T23:40:53.501Z,55.80
2019-03-17T23:43:24.351Z,56.60
2019-03-17T23:45:55.221Z,59.20
2019-03-17T23:48:25.989Z,61.40
2019-03-17T23:50:56.848Z,63.30
2019-03-17T23:53:27.676Z,63.90
2019-03-17T23:55:59.715Z,64.40
2019-03-17T23:58:30.551Z,65.80
